createdAt,value
2023-03-28T00:01:57.540Z,3.00
2023-03-28T00:05:00.202Z,3.20
2023-03-28T00:08:02.385Z,2.53
2023-03-28T00:11:19.015Z,2.75
2023-03-28T00:14:21.141Z,3.92
2023-03-28T00:17:24.672Z,3.05
2023-03-28T00:20:30.002Z,5.67
2023-03-28T00:23:34.079Z,3.80
2023-03-28T00:26:37.929Z,3.40
2023-03-28T00:29:40.074Z,3.35
2023-03-28T00:32:51.134Z,4.07
2023-03-28T00:35:53.204Z,5.57
2023-03-28T00:38:59.030Z,4.53
2023-03-28T00:42:04.304Z,3.25
2023-03-28T00:45:11.319Z,7.85
2023-03-28T00:48:15.615Z,5.68
2023-03-28T00:51:21.108Z,4.22
2023-03-28T00:54:28.223Z,4.13
2023-03-28T00:57:30.384Z,4.05
2023-03-28T01:00:34.980Z,3.22
2023-03-28T01:03:41.600Z,3.30
2023-03-28T01:06:47.956Z,3.15
2023-03-28T01:09:50.714Z,5.45
2023-03-28T01:12:56.301Z,2.72
2023-03-28T01:15:59.696Z,4.20
2023-03-28T01:19:02.807Z,3.77
2023-03-28T01:22:30.244Z,2.65
2023-03-28T01:25:42.852Z,3.25
2023-03-28T01:28:44.787Z,4.00
2023-03-28T01:32:01.655Z,4.43
2023-03-28T01:35:22.389Z,3.10
2023-03-28T01:38:42.321Z,3.85
2023-03-28T01:41:45.226Z,2.93
2023-03-28T01:45:06.572Z,4.40
2023-03-28T01:48:23.804Z,4.28
2023-03-28T01:51:50.857Z,3.90
2023-03-28T01:55:05.629Z,3.38
2023-03-28T01:58:16.432Z,3.17
2023-03-28T02:01:31.248Z,3.20
2023-03-28T02:04:36.682Z,2.63
2023-03-28T02:07:41.171Z,2.97
2023-03-28T02:10:46.010Z,2.70
2023-03-28T02:13:55.974Z,2.75
2023-03-28T02:17:02.051Z,2.40
2023-03-28T02:20:09.132Z,2.78
2023-03-28T02:23:40.412Z,3.37
2023-03-28T02:26:42.909Z,2.87
2023-03-28T02:29:50.683Z,2.23
2023-03-28T02:32:58.233Z,2.57
2023-03-28T02:36:35.048Z,2.28
2023-03-28T02:40:13.970Z,2.63
2023-03-28T02:43:16.122Z,3.70
2023-03-28T02:46:43.923Z,2.63
2023-03-28T02:50:04.770Z,3.35
2023-03-28T02:53:44.900Z,2.17
2023-03-28T02:57:04.054Z,2.50
2023-03-28T03:00:13.084Z,2.73
2023-03-28T03:03:16.976Z,2.47
2023-03-28T03:06:19.480Z,2.75
2023-03-28T03:09:23.154Z,2.10
2023-03-28T03:12:25.484Z,2.53
2023-03-28T03:15:30.908Z,3.00
2023-03-28T03:18:35.060Z,2.43
2023-03-28T03:21:37.463Z,2.70
2023-03-28T03:24:39.512Z,4.77
2023-03-28T03:27:41.687Z,3.13
2023-03-28T03:30:43.968Z,2.17
2023-03-28T03:33:46.137Z,1.97
2023-03-28T03:36:55.113Z,1.93
2023-03-28T03:39:57.169Z,1.77
2023-03-28T03:42:59.214Z,1.90
2023-03-28T03:46:02.933Z,3.17
2023-03-28T03:49:05.200Z,2.73
2023-03-28T03:52:07.236Z,2.80
2023-03-28T03:55:09.671Z,2.20
2023-03-28T03:58:12.142Z,2.83
2023-03-28T04:01:14.184Z,2.43
2023-03-28T04:04:16.336Z,2.20
2023-03-28T04:07:18.574Z,2.20
2023-03-28T04:10:20.824Z,2.20
2023-03-28T04:13:23.043Z,2.00
2023-03-28T04:16:25.077Z,1.73
2023-03-28T04:19:27.679Z,2.63
2023-03-28T04:22:30.097Z,3.03
2023-03-28T04:25:32.280Z,2.00
2023-03-28T04:28:34.377Z,2.03
2023-03-28T04:31:39.740Z,2.17
2023-03-28T04:34:45.936Z,3.03
2023-03-28T04:37:49.447Z,3.33
2023-03-28T04:40:53.725Z,2.63
2023-03-28T04:43:55.886Z,2.45
2023-03-28T04:46:58.570Z,2.73
2023-03-28T04:50:01.817Z,2.27
2023-03-28T04:53:04.013Z,2.70
2023-03-28T04:56:06.475Z,2.40
2023-03-28T04:59:08.510Z,2.90
2023-03-28T05:02:11.101Z,3.00
2023-03-28T05:05:14.075Z,4.00
2023-03-28T05:08:18.039Z,3.57
2023-03-28T05:11:20.080Z,3.97
2023-03-28T05:14:22.211Z,3.53
2023-03-28T05:17:24.963Z,3.13
2023-03-28T05:20:28.367Z,3.87
2023-03-28T05:23:30.434Z,3.60
2023-03-28T05:26:32.512Z,4.00
2023-03-28T05:29:34.741Z,4.40
2023-03-28T05:32:38.342Z,3.83
2023-03-28T05:35:40.620Z,3.70
2023-03-28T05:38:42.786Z,4.27
2023-03-28T05:41:44.866Z,5.40
2023-03-28T05:44:47.011Z,3.87
2023-03-28T05:47:55.709Z,4.47
2023-03-28T05:50:58.331Z,3.93
2023-03-28T05:54:01.060Z,3.90
2023-03-28T05:57:04.082Z,4.53
2023-03-28T06:00:12.414Z,4.57
2023-03-28T06:03:17.093Z,3.50
2023-03-28T06:06:20.525Z,4.73
2023-03-28T06:09:22.700Z,4.37
2023-03-28T06:12:24.758Z,4.67
2023-03-28T06:15:27.456Z,4.63
2023-03-28T06:18:30.544Z,5.03
2023-03-28T06:21:32.624Z,5.43
2023-03-28T06:24:34.837Z,5.80
2023-03-28T06:27:37.113Z,5.10
2023-03-28T06:30:41.908Z,4.37
2023-03-28T06:33:44.478Z,6.17
2023-03-28T06:36:46.504Z,6.67
2023-03-28T06:39:50.812Z,6.20
2023-03-28T06:42:53.715Z,7.90
2023-03-28T06:45:57.207Z,6.80
2023-03-28T06:49:00.949Z,9.47
2023-03-28T06:52:03.921Z,8.85
2023-03-28T06:55:06.426Z,6.57
2023-03-28T06:58:08.514Z,7.07
2023-03-28T07:01:10.905Z,7.80
2023-03-28T07:04:12.985Z,9.35
2023-03-28T07:07:15.462Z,7.20
2023-03-28T07:10:17.634Z,6.72
2023-03-28T07:13:19.706Z,26.15
2023-03-28T07:16:21.769Z,23.58
2023-03-28T07:19:24.258Z,37.95
2023-03-28T07:22:27.366Z,12.48
2023-03-28T07:25:29.446Z,7.90
2023-03-28T07:28:31.711Z,6.85
2023-03-28T07:31:34.866Z,8.05
2023-03-28T07:34:36.918Z,7.97
2023-03-28T07:37:38.974Z,7.47
2023-03-28T07:40:41.076Z,5.57
2023-03-28T07:43:43.440Z,5.20
2023-03-28T07:46:47.014Z,6.63
2023-03-28T07:49:49.117Z,6.10
2023-03-28T07:52:57.649Z,7.30
2023-03-28T07:55:59.946Z,5.75
2023-03-28T07:59:02.343Z,5.60
2023-03-28T08:02:04.369Z,6.43
2023-03-28T08:05:06.658Z,6.65
2023-03-28T08:08:10.079Z,5.43
2023-03-28T08:11:13.533Z,6.80
2023-03-28T08:14:18.427Z,4.72
2023-03-28T08:17:20.676Z,5.32
2023-03-28T08:20:22.770Z,7.60
2023-03-28T08:23:26.609Z,5.03
2023-03-28T08:26:29.043Z,4.32
2023-03-28T08:29:32.408Z,4.80
2023-03-28T08:32:34.492Z,4.57
2023-03-28T08:35:38.255Z,6.05
2023-03-28T08:38:42.829Z,5.45
2023-03-28T08:42:06.458Z,5.22
2023-03-28T08:45:47.196Z,6.05
2023-03-28T08:48:52.038Z,4.80
2023-03-28T08:52:00.726Z,3.90
2023-03-28T08:55:28.122Z,5.55
2023-03-28T08:58:42.670Z,5.10
2023-03-28T09:01:45.499Z,4.82
2023-03-28T09:04:51.055Z,4.03
2023-03-28T09:08:16.154Z,4.22
2023-03-28T09:11:39.316Z,5.65
2023-03-28T09:14:50.064Z,5.43
2023-03-28T09:17:56.502Z,3.42
2023-03-28T09:21:21.159Z,4.95
2023-03-28T09:24:26.404Z,4.50
2023-03-28T09:27:37.801Z,5.22
2023-03-28T09:30:45.555Z,5.18
2023-03-28T09:33:50.135Z,4.82
2023-03-28T09:36:56.736Z,5.53
2023-03-28T09:40:29.142Z,5.90
2023-03-28T09:43:34.256Z,3.42
2023-03-28T09:46:47.152Z,4.30
2023-03-28T09:49:54.339Z,4.78
2023-03-28T09:52:59.263Z,3.15
2023-03-28T09:56:12.164Z,4.88
2023-03-28T09:59:29.250Z,4.65
2023-03-28T10:02:33.972Z,4.85
2023-03-28T10:05:40.190Z,5.53
2023-03-28T10:08:42.891Z,3.67
2023-03-28T10:11:57.616Z,4.03
2023-03-28T10:15:04.412Z,4.90
2023-03-28T10:18:06.821Z,4.72
2023-03-28T10:21:15.699Z,2.87
2023-03-28T10:24:22.257Z,3.92
2023-03-28T10:27:31.995Z,3.13
2023-03-28T10:30:37.200Z,3.97
2023-03-28T10:33:46.503Z,4.00
2023-03-28T10:36:48.595Z,3.55
2023-03-28T10:40:02.455Z,4.15
2023-03-28T10:43:15.487Z,4.03
2023-03-28T10:46:20.426Z,3.50
2023-03-28T10:49:24.277Z,2.75
2023-03-28T10:52:52.563Z,2.80
2023-03-28T10:56:15.708Z,3.10
2023-03-28T10:59:49.977Z,4.22
2023-03-28T11:03:10.638Z,4.60
2023-03-28T11:06:25.574Z,2.70
2023-03-28T11:09:40.417Z,3.10
2023-03-28T11:13:15.749Z,2.85
2023-03-28T11:16:25.398Z,2.92
2023-03-28T11:19:39.804Z,11.63
2023-03-28T11:23:07.811Z,3.13
2023-03-28T11:26:22.179Z,2.72
2023-03-28T11:29:49.771Z,2.92
2023-03-28T11:33:39.248Z,2.92
2023-03-28T11:37:23.201Z,5.10
2023-03-28T11:40:33.752Z,2.70
2023-03-28T11:43:58.282Z,2.17
2023-03-28T11:47:25.887Z,2.17
2023-03-28T11:50:35.648Z,6.80
2023-03-28T11:53:52.068Z,3.92
2023-03-28T11:57:06.077Z,6.65
2023-03-28T12:03:55.186Z,5.20
2023-03-28T12:07:18.786Z,8.90
2023-03-28T12:10:36.215Z,3.50
2023-03-28T12:14:05.233Z,5.25
2023-03-28T12:17:39.261Z,3.45
2023-03-28T12:20:54.120Z,5.00
2023-03-28T12:23:59.672Z,5.75
2023-03-28T12:27:07.808Z,3.63
2023-03-28T12:30:21.178Z,4.22
2023-03-28T12:33:38.268Z,4.57
2023-03-28T12:36:51.464Z,5.53
2023-03-28T12:40:13.655Z,5.80
2023-03-28T12:43:18.722Z,5.25
2023-03-28T12:46:50.106Z,4.20
2023-03-28T12:49:57.365Z,3.75
2023-03-28T12:53:00.751Z,5.38
2023-03-28T12:56:03.663Z,5.78
2023-03-28T12:59:51.839Z,7.20
2023-03-28T13:03:05.968Z,19.67
2023-03-28T13:06:42.732Z,4.55
2023-03-28T13:10:35.804Z,3.53
2023-03-28T13:13:50.612Z,4.32
2023-03-28T13:17:01.574Z,2.83
2023-03-28T13:20:17.653Z,4.13
2023-03-28T13:23:28.961Z,2.88
2023-03-28T13:26:59.854Z,3.45
2023-03-28T13:30:29.968Z,3.47
2023-03-28T13:34:00.987Z,2.42
2023-03-28T13:37:23.134Z,3.08
2023-03-28T13:40:43.097Z,2.08
2023-03-28T13:44:00.581Z,2.17
2023-03-28T13:47:02.882Z,2.65
2023-03-28T13:50:18.819Z,1.77
2023-03-28T13:53:20.834Z,1.83
2023-03-28T13:56:29.975Z,2.63
2023-03-28T13:59:35.977Z,2.85
2023-03-28T14:02:43.517Z,1.75
2023-03-28T14:05:46.526Z,1.83
2023-03-28T14:08:51.513Z,1.55
2023-03-28T14:12:03.172Z,2.35
2023-03-28T14:15:07.123Z,2.10
2023-03-28T14:18:43.149Z,1.80
2023-03-28T14:21:47.164Z,2.10
2023-03-28T14:24:54.284Z,1.52
2023-03-28T14:27:57.418Z,1.83
2023-03-28T14:31:00.932Z,2.20
2023-03-28T14:34:30.492Z,1.50
2023-03-28T14:37:32.694Z,1.95
2023-03-28T14:40:39.059Z,2.33
2023-03-28T14:43:52.457Z,2.72
2023-03-28T14:47:00.139Z,2.75
2023-03-28T14:50:03.446Z,5.32
2023-03-28T14:53:12.438Z,5.38
2023-03-28T14:56:24.692Z,5.80
2023-03-28T14:59:35.112Z,5.03
2023-03-28T15:02:40.949Z,4.43
2023-03-28T15:05:45.370Z,4.93
2023-03-28T15:08:47.516Z,4.20
2023-03-28T15:11:49.628Z,4.50
2023-03-28T15:14:51.973Z,3.08
2023-03-28T15:17:57.287Z,3.72
2023-03-28T15:21:02.907Z,3.90
2023-03-28T15:24:08.149Z,3.08
2023-03-28T15:27:31.792Z,2.72
2023-03-28T15:30:36.313Z,2.67
2023-03-28T15:33:38.520Z,7.05
2023-03-28T15:36:52.876Z,3.85
2023-03-28T15:40:10.869Z,3.03
2023-03-28T15:43:57.059Z,2.20
2023-03-28T15:47:10.983Z,2.75
2023-03-28T15:50:19.578Z,3.42
2023-03-28T15:53:26.790Z,4.40
2023-03-28T15:56:37.163Z,3.35
2023-03-28T15:59:43.919Z,3.25
2023-03-28T16:02:46.926Z,3.78
2023-03-28T16:05:50.063Z,2.83
2023-03-28T16:09:07.289Z,3.20
2023-03-28T16:12:13.613Z,3.10
2023-03-28T16:15:15.769Z,1.90
2023-03-28T16:18:19.606Z,3.33
2023-03-28T16:21:22.054Z,2.30
2023-03-28T16:24:24.285Z,2.10
2023-03-28T16:27:26.799Z,2.05
2023-03-28T16:30:33.935Z,1.70
2023-03-28T16:33:35.986Z,2.97
2023-03-28T16:36:38.946Z,2.67
2023-03-28T16:39:42.657Z,2.40
2023-03-28T16:42:45.976Z,2.15
2023-03-28T16:45:50.080Z,2.08
2023-03-28T16:48:52.402Z,3.43
2023-03-28T16:51:55.744Z,1.92
2023-03-28T16:54:57.884Z,2.22
2023-03-28T16:58:00.019Z,2.40
2023-03-28T17:01:14.125Z,1.98
2023-03-28T17:04:16.341Z,1.70
2023-03-28T17:07:18.808Z,2.33
2023-03-28T17:10:20.923Z,2.90
2023-03-28T17:13:24.909Z,3.33
2023-03-28T17:16:27.497Z,2.08
2023-03-28T17:19:29.643Z,1.52
2023-03-28T17:22:37.034Z,2.13
2023-03-28T17:25:48.278Z,2.75
2023-03-28T17:28:58.367Z,1.95
2023-03-28T17:32:01.859Z,2.58
2023-03-28T17:35:04.212Z,4.95
2023-03-28T17:38:07.100Z,2.85
2023-03-28T17:41:09.278Z,2.38
2023-03-28T17:44:13.658Z,2.67
2023-03-28T17:47:18.587Z,2.90
2023-03-28T17:50:21.641Z,2.03
2023-03-28T17:53:23.994Z,2.65
2023-03-28T17:56:26.378Z,1.90
2023-03-28T17:59:29.399Z,1.77
2023-03-28T18:02:31.650Z,3.28
2023-03-28T18:05:33.893Z,1.77
2023-03-28T18:08:36.461Z,3.97
2023-03-28T18:11:39.539Z,2.83
2023-03-28T18:14:41.825Z,2.40
2023-03-28T18:17:45.252Z,2.55
2023-03-28T18:20:47.417Z,2.05
2023-03-28T18:23:49.693Z,2.08
2023-03-28T18:26:51.744Z,2.40
2023-03-28T18:29:54.851Z,3.10
2023-03-28T18:32:57.376Z,3.38
2023-03-28T18:36:00.124Z,2.78
2023-03-28T18:39:05.690Z,1.42
2023-03-28T18:42:09.179Z,2.58
2023-03-28T18:45:13.304Z,2.78
2023-03-28T18:48:18.601Z,3.10
2023-03-28T18:51:21.048Z,3.75
2023-03-28T18:54:23.146Z,1.98
2023-03-28T18:57:25.336Z,2.60
2023-03-28T19:00:27.885Z,2.92
2023-03-28T19:03:32.241Z,2.95
2023-03-28T19:06:36.249Z,2.50
2023-03-28T19:09:38.354Z,3.35
2023-03-28T19:12:41.806Z,2.92
2023-03-28T19:15:43.928Z,2.17
2023-03-28T19:18:47.082Z,3.55
2023-03-28T19:21:49.088Z,3.35
2023-03-28T19:24:51.125Z,3.10
2023-03-28T19:27:53.335Z,2.20
2023-03-28T19:31:04.456Z,2.90
2023-03-28T19:34:08.407Z,2.53
2023-03-28T19:37:10.565Z,2.20
2023-03-28T19:40:16.835Z,2.60
2023-03-28T19:43:21.332Z,2.97
2023-03-28T19:46:35.508Z,3.03
2023-03-28T19:49:40.392Z,4.00
2023-03-28T19:52:43.099Z,2.92
2023-03-28T19:55:54.679Z,2.70
2023-03-28T19:58:56.691Z,2.13
2023-03-28T20:01:58.838Z,3.20
2023-03-28T20:05:01.098Z,3.00
2023-03-28T20:08:03.736Z,2.03
2023-03-28T20:11:12.068Z,1.80
2023-03-28T20:14:17.384Z,2.47
2023-03-28T20:17:19.575Z,3.95
2023-03-28T20:20:24.068Z,2.50
2023-03-28T20:26:29.294Z,2.97
2023-03-28T20:29:32.557Z,2.95
2023-03-28T20:32:34.770Z,2.28
2023-03-28T20:35:37.317Z,2.45
2023-03-28T20:38:39.610Z,2.30
2023-03-28T20:41:41.913Z,2.45
2023-03-28T20:44:46.494Z,2.28
2023-03-28T20:47:58.873Z,2.22
2023-03-28T20:51:05.963Z,2.25
2023-03-28T20:54:07.929Z,2.72
2023-03-28T20:57:09.945Z,3.35
2023-03-28T21:00:15.033Z,2.28
2023-03-28T21:03:18.601Z,2.22
2023-03-28T21:06:26.690Z,2.07
2023-03-28T21:09:29.729Z,1.90
2023-03-28T21:12:31.689Z,2.33
2023-03-28T21:15:34.857Z,2.17
2023-03-28T21:18:37.540Z,1.80
2023-03-28T21:21:40.635Z,1.42
2023-03-28T21:24:43.684Z,1.98
2023-03-28T21:27:45.919Z,6.72
2023-03-28T21:31:01.839Z,6.25
2023-03-28T21:34:04.081Z,5.55
2023-03-28T21:37:06.250Z,3.90
2023-03-28T21:40:08.917Z,2.63
2023-03-28T21:43:11.358Z,3.40
2023-03-28T21:46:15.154Z,2.63
2023-03-28T21:49:18.297Z,4.13
2023-03-28T21:52:20.607Z,1.88
2023-03-28T21:55:22.726Z,2.40
2023-03-28T21:58:26.157Z,1.70
2023-03-28T22:01:28.345Z,2.00
2023-03-28T22:04:31.004Z,1.42
2023-03-28T22:07:33.561Z,2.45
2023-03-28T22:10:37.683Z,2.50
2023-03-28T22:13:40.352Z,2.53
2023-03-28T22:16:42.751Z,3.67
2023-03-28T22:19:44.826Z,6.35
2023-03-28T22:22:48.705Z,3.20
2023-03-28T22:29:18.710Z,2.50
2023-03-28T22:32:21.210Z,2.55
2023-03-28T22:35:23.609Z,1.95
2023-03-28T22:38:26.070Z,2.85
2023-03-28T22:41:31.795Z,2.97
2023-03-28T22:44:33.917Z,1.63
2023-03-28T22:47:39.585Z,2.13
2023-03-28T22:50:44.376Z,2.60
2023-03-28T22:53:47.258Z,2.50
2023-03-28T22:56:49.991Z,2.10
2023-03-28T22:59:53.275Z,1.50
2023-03-28T23:02:56.208Z,2.22
2023-03-28T23:06:03.098Z,2.08
2023-03-28T23:09:05.245Z,2.88
2023-03-28T23:12:12.853Z,2.53
2023-03-28T23:15:16.196Z,3.00
2023-03-28T23:18:19.984Z,2.13
2023-03-28T23:21:24.559Z,1.83
2023-03-28T23:24:31.533Z,2.30
2023-03-28T23:27:33.854Z,2.13
2023-03-28T23:30:36.532Z,1.77
2023-03-28T23:33:39.014Z,2.00
2023-03-28T23:36:46.103Z,2.22
2023-03-28T23:39:48.130Z,2.00
2023-03-28T23:42:50.394Z,1.50
2023-03-28T23:45:52.911Z,1.80
2023-03-28T23:48:54.924Z,2.50
2023-03-28T23:51:59.707Z,1.42
2023-03-28T23:55:02.568Z,2.15
2023-03-28T23:58:04.949Z,1.33
